createdAt,value
2022-09-04T00:00:28.531Z,16.05
2022-09-04T00:03:31.565Z,14.15
2022-09-04T00:06:02.382Z,17.63
2022-09-04T00:08:54.032Z,16.77
2022-09-04T00:11:36.056Z,15.27
2022-09-04T00:14:11.391Z,13.73
2022-09-04T00:17:00.489Z,18.10
2022-09-04T00:19:56.527Z,15.07
2022-09-04T00:22:52.445Z,17.13
2022-09-04T00:25:25.028Z,16.38
2022-09-04T00:27:58.682Z,14.13
2022-09-04T00:30:25.746Z,16.55
2022-09-04T00:33:19.555Z,15.82
2022-09-04T00:36:03.756Z,17.08
2022-09-04T00:38:39.663Z,15.88
2022-09-04T00:41:43.184Z,18.38
2022-09-04T00:44:47.211Z,16.88
2022-09-04T00:47:25.805Z,16.33
2022-09-04T00:50:12.704Z,16.45
2022-09-04T00:52:58.478Z,17.52
2022-09-04T00:55:45.792Z,19.30
2022-09-04T00:58:56.691Z,19.27
2022-09-04T01:01:26.793Z,17.38
2022-09-04T01:04:13.030Z,19.20
2022-09-04T01:07:03.563Z,17.13
2022-09-04T01:09:45.026Z,20.55
2022-09-04T01:12:26.540Z,19.80
2022-09-04T01:15:19.595Z,19.48
2022-09-04T01:18:12.807Z,16.98
2022-09-04T01:21:10.053Z,19.13
2022-09-04T01:24:00.807Z,22.35
2022-09-04T01:26:52.313Z,20.75
2022-09-04T01:29:47.130Z,23.10
2022-09-04T01:32:32.447Z,23.30
2022-09-04T01:38:06.807Z,28.17
2022-09-04T01:40:40.282Z,23.63
2022-09-04T01:43:07.059Z,21.85
2022-09-04T01:45:43.173Z,20.42
2022-09-04T01:48:16.839Z,22.65
2022-09-04T01:50:49.306Z,21.15
2022-09-04T01:53:26.692Z,20.95
2022-09-04T01:56:19.980Z,21.48
2022-09-04T01:59:20.269Z,23.55
2022-09-04T02:01:54.628Z,21.02
2022-09-04T02:04:51.974Z,21.77
2022-09-04T02:07:45.659Z,25.10
2022-09-04T02:10:31.429Z,22.40
2022-09-04T02:13:05.058Z,23.02
2022-09-04T02:15:58.789Z,21.70
2022-09-04T02:18:33.071Z,20.23
2022-09-04T02:21:14.791Z,22.85
2022-09-04T02:23:52.171Z,19.55
2022-09-04T02:26:33.774Z,20.85
2022-09-04T02:29:06.664Z,23.00
2022-09-04T02:32:09.561Z,19.77
2022-09-04T02:34:58.459Z,21.33
2022-09-04T02:37:31.020Z,21.65
2022-09-04T02:40:11.997Z,22.00
2022-09-04T02:42:58.681Z,23.13
2022-09-04T02:45:42.079Z,19.70
2022-09-04T02:48:35.231Z,20.52
2022-09-04T02:51:02.302Z,20.08
2022-09-04T02:53:51.571Z,21.35
2022-09-04T02:56:52.372Z,22.52
2022-09-04T02:59:51.097Z,22.92
2022-09-04T03:02:27.838Z,26.08
2022-09-04T03:05:14.857Z,23.50
2022-09-04T03:08:05.443Z,21.45
2022-09-04T03:10:43.049Z,22.98
2022-09-04T03:13:32.215Z,23.90
2022-09-04T03:16:12.690Z,20.65
2022-09-04T03:19:30.534Z,21.13
2022-09-04T03:22:29.041Z,22.98
2022-09-04T03:25:23.803Z,24.00
2022-09-04T03:27:50.637Z,23.35
2022-09-04T03:30:18.526Z,22.90
2022-09-04T03:33:12.731Z,23.75
2022-09-04T03:35:51.234Z,22.50
2022-09-04T03:38:28.697Z,23.27
2022-09-04T03:41:04.459Z,21.15
2022-09-04T03:43:56.642Z,20.48
2022-09-04T03:46:34.926Z,20.67
2022-09-04T03:49:26.526Z,24.65
2022-09-04T03:52:07.882Z,22.35
2022-09-04T03:55:05.776Z,25.52
2022-09-04T03:57:57.534Z,24.88
2022-09-04T04:00:24.375Z,21.75
2022-09-04T04:03:06.212Z,21.30
2022-09-04T04:05:58.722Z,20.02
2022-09-04T04:08:44.150Z,21.70
2022-09-04T04:11:12.094Z,19.77
2022-09-04T04:13:58.368Z,18.60
2022-09-04T04:17:05.685Z,16.20
2022-09-04T04:19:42.246Z,20.58
2022-09-04T04:22:08.963Z,17.73
2022-09-04T04:24:58.622Z,17.52
2022-09-04T04:27:40.639Z,15.00
2022-09-04T04:30:10.004Z,17.33
2022-09-04T04:33:04.906Z,17.00
2022-09-04T04:35:34.511Z,13.80
2022-09-04T04:38:24.911Z,18.63
2022-09-04T04:41:21.555Z,17.08
2022-09-04T04:43:56.703Z,14.65
2022-09-04T04:46:49.607Z,18.48
2022-09-04T04:49:23.097Z,14.02
2022-09-04T04:51:55.848Z,13.35
2022-09-04T04:54:51.496Z,15.30
2022-09-04T04:57:27.893Z,17.63
2022-09-04T05:00:26.811Z,18.35
2022-09-04T05:03:23.586Z,17.45
2022-09-04T05:06:08.699Z,19.40
2022-09-04T05:08:48.128Z,18.08
2022-09-04T05:11:42.582Z,18.30
2022-09-04T05:14:25.472Z,17.65
2022-09-04T05:17:18.517Z,18.90
2022-09-04T05:20:14.690Z,21.60
2022-09-04T05:22:54.628Z,22.77
2022-09-04T05:25:35.568Z,19.42
2022-09-04T05:28:23.050Z,19.80
2022-09-04T05:31:05.741Z,20.60
2022-09-04T05:33:57.274Z,18.67
2022-09-04T05:36:52.005Z,18.70
2022-09-04T05:39:44.760Z,19.85
2022-09-04T05:42:37.767Z,20.08
2022-09-04T05:45:18.562Z,19.58
2022-09-04T05:48:03.809Z,23.83
2022-09-04T05:50:47.669Z,24.25
2022-09-04T05:53:51.836Z,25.85
2022-09-04T05:56:30.369Z,25.15
2022-09-04T05:59:11.853Z,21.90
2022-09-04T06:02:09.452Z,20.10
2022-09-04T06:05:00.926Z,22.85
2022-09-04T06:08:06.115Z,31.05
2022-09-04T06:10:38.817Z,17.53
2022-09-04T06:13:28.897Z,20.27
2022-09-04T06:16:10.890Z,19.73
2022-09-04T06:18:47.003Z,20.17
2022-09-04T06:21:25.990Z,20.30
2022-09-04T06:24:49.450Z,21.10
2022-09-04T06:27:18.800Z,21.00
2022-09-04T06:30:01.158Z,19.42
2022-09-04T06:32:53.184Z,18.73
2022-09-04T06:35:45.050Z,21.85
2022-09-04T06:38:33.509Z,19.33
2022-09-04T06:41:33.148Z,19.55
2022-09-04T06:44:18.702Z,17.55
2022-09-04T06:47:01.003Z,19.50
2022-09-04T06:49:39.356Z,20.77
2022-09-04T06:52:38.975Z,21.27
2022-09-04T06:55:18.077Z,18.95
2022-09-04T06:58:00.123Z,19.95
2022-09-04T07:00:34.943Z,19.13
2022-09-04T07:03:17.399Z,19.65
2022-09-04T07:06:02.990Z,16.42
2022-09-04T07:08:44.907Z,20.13
2022-09-04T07:11:17.709Z,18.65
2022-09-04T07:14:17.180Z,19.40
2022-09-04T07:17:06.985Z,18.42
2022-09-04T07:19:45.979Z,19.98
2022-09-04T07:22:37.427Z,18.58
2022-09-04T07:25:27.192Z,18.10
2022-09-04T07:28:26.043Z,17.33
2022-09-04T07:31:04.647Z,15.40
2022-09-04T07:33:48.308Z,15.80
2022-09-04T07:36:29.482Z,16.17
2022-09-04T07:39:20.595Z,17.77
2022-09-04T07:42:37.345Z,14.65
2022-09-04T07:45:34.241Z,13.93
2022-09-04T07:48:30.716Z,13.82
2022-09-04T07:51:12.149Z,15.50
2022-09-04T07:53:55.567Z,15.02
2022-09-04T07:56:43.122Z,14.48
2022-09-04T07:59:25.393Z,16.63
2022-09-04T08:02:14.766Z,12.75
2022-09-04T08:04:57.711Z,13.65
2022-09-04T08:07:30.485Z,14.52
2022-09-04T08:10:00.229Z,12.25
2022-09-04T08:12:29.948Z,13.63
2022-09-04T08:15:10.373Z,14.93
2022-09-04T08:17:51.906Z,15.27
2022-09-04T08:20:21.662Z,13.52
2022-09-04T08:23:04.573Z,14.90
2022-09-04T08:25:59.209Z,12.27
2022-09-04T08:28:57.273Z,12.25
2022-09-04T08:31:45.355Z,13.40
2022-09-04T08:34:12.227Z,12.57
2022-09-04T08:37:10.664Z,13.32
2022-09-04T08:39:52.650Z,13.55
2022-09-04T08:42:41.700Z,13.30
2022-09-04T08:45:43.444Z,12.88
2022-09-04T08:48:44.564Z,12.68
2022-09-04T08:51:36.195Z,13.52
2022-09-04T08:54:31.296Z,14.40
2022-09-04T08:57:22.427Z,13.82
2022-09-04T09:00:22.156Z,14.15
2022-09-04T09:03:07.192Z,14.70
2022-09-04T09:05:47.821Z,14.68
2022-09-04T09:08:36.236Z,14.40
2022-09-04T09:11:16.886Z,14.32
2022-09-04T09:14:01.257Z,13.35
2022-09-04T09:16:43.260Z,15.80
2022-09-04T09:19:33.879Z,15.73
2022-09-04T09:22:28.795Z,15.60
2022-09-04T09:25:21.149Z,15.43
2022-09-04T09:28:25.495Z,13.70
2022-09-04T09:31:10.811Z,16.90
2022-09-04T09:33:40.955Z,16.05
2022-09-04T09:36:35.575Z,15.70
2022-09-04T09:39:14.348Z,14.32
2022-09-04T09:41:59.717Z,14.25
2022-09-04T09:45:16.062Z,13.68
2022-09-04T09:50:45.811Z,14.43
2022-09-04T09:53:23.326Z,16.50
2022-09-04T09:56:11.952Z,15.88
2022-09-04T09:58:56.933Z,14.45
2022-09-04T10:01:26.961Z,13.23
2022-09-04T10:04:11.982Z,14.32
2022-09-04T10:07:00.438Z,13.68
2022-09-04T10:09:52.286Z,15.45
2022-09-04T10:12:41.011Z,15.43
2022-09-04T10:15:45.467Z,14.38
2022-09-04T10:18:15.134Z,13.75
2022-09-04T10:21:12.689Z,14.10
2022-09-04T10:23:48.445Z,15.82
2022-09-04T10:26:35.954Z,16.08
2022-09-04T10:29:24.121Z,16.70
2022-09-04T10:32:03.061Z,15.05
2022-09-04T10:34:46.224Z,14.60
2022-09-04T10:37:50.628Z,15.13
2022-09-04T10:40:44.487Z,14.52
2022-09-04T10:43:37.656Z,13.25
2022-09-04T10:46:33.006Z,14.25
2022-09-04T10:49:33.988Z,13.45
2022-09-04T10:52:10.221Z,16.45
2022-09-04T10:54:43.864Z,14.93
2022-09-04T10:58:02.689Z,15.63
2022-09-04T11:00:51.208Z,17.75
2022-09-04T11:03:54.554Z,17.33
2022-09-04T11:06:41.212Z,15.13
2022-09-04T11:09:40.447Z,16.05
2022-09-04T11:12:34.245Z,15.82
2022-09-04T11:15:02.142Z,16.02
2022-09-04T11:17:37.976Z,19.05
2022-09-04T11:20:12.871Z,18.25
2022-09-04T11:22:53.796Z,17.35
2022-09-04T11:25:45.503Z,18.05
2022-09-04T11:28:41.210Z,15.88
2022-09-04T11:31:34.193Z,19.55
2022-09-04T11:34:40.506Z,18.15
2022-09-04T11:37:32.025Z,17.52
2022-09-04T11:40:20.221Z,14.05
2022-09-04T11:43:15.798Z,17.20
2022-09-04T11:46:07.063Z,16.35
2022-09-04T11:49:09.531Z,18.15
2022-09-04T11:52:13.920Z,13.73
2022-09-04T11:54:55.838Z,17.17
2022-09-04T11:57:51.906Z,17.17
2022-09-04T12:00:20.237Z,17.17
2022-09-04T12:03:08.832Z,17.27
2022-09-04T12:05:50.978Z,15.23
2022-09-04T12:08:45.759Z,17.10
2022-09-04T12:11:37.097Z,17.87
2022-09-04T12:14:22.307Z,15.77
2022-09-04T12:17:15.650Z,17.67
2022-09-04T12:20:08.168Z,17.15
2022-09-04T12:23:01.725Z,18.95
2022-09-04T12:25:49.765Z,18.73
2022-09-04T12:28:55.089Z,18.50
2022-09-04T12:31:57.049Z,17.48
2022-09-04T12:34:56.485Z,14.82
2022-09-04T12:37:47.741Z,16.08
2022-09-04T12:40:30.931Z,16.23
2022-09-04T12:42:57.555Z,15.70
2022-09-04T12:45:27.589Z,17.90
2022-09-04T12:48:33.288Z,17.67
2022-09-04T12:51:26.645Z,17.95
2022-09-04T12:54:11.599Z,17.13
2022-09-04T12:56:57.567Z,17.92
2022-09-04T12:59:27.122Z,20.38
2022-09-04T13:02:09.322Z,18.83
2022-09-04T13:05:12.188Z,17.83
2022-09-04T13:08:00.453Z,16.83
2022-09-04T13:10:42.466Z,17.90
2022-09-04T13:13:24.891Z,15.35
2022-09-04T13:15:51.999Z,18.00
2022-09-04T13:18:44.816Z,19.45
2022-09-04T13:21:44.417Z,16.77
2022-09-04T13:24:36.485Z,20.42
2022-09-04T13:27:33.914Z,19.25
2022-09-04T13:33:11.437Z,22.35
2022-09-04T13:36:12.335Z,23.42
2022-09-04T13:39:16.996Z,20.20
2022-09-04T13:42:12.665Z,18.30
2022-09-04T13:44:52.013Z,17.55
2022-09-04T13:47:32.649Z,18.75
2022-09-04T13:50:10.216Z,21.10
2022-09-04T13:52:46.288Z,18.50
2022-09-04T13:55:19.843Z,21.33
2022-09-04T13:57:57.480Z,23.33
2022-09-04T14:00:28.118Z,19.13
2022-09-04T14:03:04.055Z,19.83
2022-09-04T14:05:34.683Z,21.20
2022-09-04T14:08:05.555Z,22.70
2022-09-04T14:10:55.774Z,23.98
2022-09-04T14:13:33.186Z,24.55
2022-09-04T14:16:11.161Z,24.27
2022-09-04T14:18:55.711Z,26.73
2022-09-04T14:21:35.401Z,24.73
2022-09-04T14:24:41.053Z,26.67
2022-09-04T14:27:32.003Z,24.05
2022-09-04T14:30:22.301Z,23.38
2022-09-04T14:33:19.184Z,21.33
2022-09-04T14:35:54.185Z,23.40
2022-09-04T14:38:41.289Z,24.35
2022-09-04T14:41:45.246Z,26.63
2022-09-04T14:44:54.037Z,25.42
2022-09-04T14:47:55.159Z,27.58
2022-09-04T14:50:31.158Z,23.15
2022-09-04T14:53:03.785Z,26.00
2022-09-04T14:55:35.245Z,29.35
2022-09-04T14:58:21.674Z,27.92
2022-09-04T15:01:22.622Z,26.85
2022-09-04T15:03:55.480Z,24.95
2022-09-04T15:06:37.881Z,28.85
2022-09-04T15:09:35.174Z,26.60
2022-09-04T15:12:25.614Z,27.98
2022-09-04T15:15:19.152Z,27.20
2022-09-04T15:17:53.098Z,29.30
2022-09-04T15:20:28.367Z,29.30
2022-09-04T15:23:33.159Z,32.05
2022-09-04T15:26:21.578Z,31.33
2022-09-04T15:29:16.384Z,33.80
2022-09-04T15:31:44.501Z,29.87
2022-09-04T15:34:20.790Z,29.42
2022-09-04T15:36:48.129Z,29.77
2022-09-04T15:39:30.729Z,29.38
2022-09-04T15:41:58.012Z,29.70
2022-09-04T15:44:46.764Z,29.15
2022-09-04T15:47:40.452Z,27.67
2022-09-04T15:50:25.998Z,27.23
2022-09-04T15:53:00.787Z,26.85
2022-09-04T15:55:32.901Z,26.40
2022-09-04T15:58:12.440Z,27.27
2022-09-04T16:01:16.806Z,27.25
2022-09-04T16:03:54.298Z,25.38
2022-09-04T16:06:30.181Z,27.48
2022-09-04T16:09:08.464Z,27.67
2022-09-04T16:11:49.318Z,27.90
2022-09-04T16:14:25.487Z,28.08
2022-09-04T16:17:01.217Z,27.67
2022-09-04T16:19:44.432Z,29.35
2022-09-04T16:22:44.110Z,28.42
2022-09-04T16:25:24.113Z,26.70
2022-09-04T16:27:58.682Z,29.17
2022-09-04T16:30:33.105Z,26.33
2022-09-04T16:33:03.535Z,28.33
2022-09-04T16:35:36.442Z,27.52
2022-09-04T16:38:27.462Z,26.92
2022-09-04T16:41:15.281Z,27.60
2022-09-04T16:44:25.868Z,28.13
2022-09-04T16:47:11.247Z,28.45
2022-09-04T16:49:40.867Z,28.25
2022-09-04T16:52:21.337Z,27.35
2022-09-04T16:54:56.754Z,28.27
2022-09-04T16:57:37.411Z,29.02
2022-09-04T17:00:14.583Z,28.92
2022-09-04T17:02:56.241Z,30.20
2022-09-04T17:05:35.856Z,30.77
2022-09-04T17:08:13.903Z,29.80
2022-09-04T17:10:47.101Z,30.73
2022-09-04T17:13:21.402Z,31.10
2022-09-04T17:16:18.760Z,32.35
2022-09-04T17:18:54.760Z,29.60
2022-09-04T17:25:35.419Z,32.00
2022-09-04T17:29:01.072Z,30.55
2022-09-04T17:30:55.574Z,31.83
2022-09-04T17:40:40.546Z,32.00
2022-09-04T17:40:41.710Z,35.80
2022-09-04T17:40:55.608Z,32.55
2022-09-04T17:42:32.020Z,35.28
2022-09-04T17:45:22.408Z,35.80
2022-09-04T17:48:06.472Z,37.58
2022-09-04T17:50:51.695Z,36.17
2022-09-04T17:53:34.249Z,38.47
2022-09-04T17:56:14.980Z,33.80
2022-09-04T17:59:07.223Z,33.92
2022-09-04T18:01:52.145Z,34.90
2022-09-04T18:04:33.712Z,32.03
2022-09-04T18:07:57.695Z,37.30
2022-09-04T18:10:34.297Z,35.47
2022-09-04T18:13:37.036Z,34.30
2022-09-04T18:16:15.209Z,35.95
2022-09-04T18:18:55.050Z,33.90
2022-09-04T18:21:53.912Z,34.42
2022-09-04T18:24:51.634Z,36.67
2022-09-04T18:27:25.536Z,34.20
2022-09-04T18:33:17.971Z,37.10
2022-09-04T18:37:20.962Z,33.90
2022-09-04T18:37:26.040Z,34.45
2022-09-04T18:39:12.760Z,33.92
2022-09-04T18:50:06.763Z,36.80
2022-09-04T18:50:25.140Z,34.22
2022-09-04T18:50:30.652Z,34.30
2022-09-04T18:51:18.368Z,39.22
2022-09-04T18:53:50.343Z,38.30
2022-09-04T18:56:22.565Z,38.00
2022-09-04T18:59:04.005Z,37.70
2022-09-04T19:02:02.980Z,39.42
2022-09-04T19:04:49.006Z,38.15
2022-09-04T19:07:41.930Z,36.40
2022-09-04T19:10:30.573Z,37.55
2022-09-04T19:13:08.335Z,37.08
2022-09-04T19:16:06.021Z,39.70
2022-09-04T19:18:43.653Z,38.72
2022-09-04T19:21:14.286Z,38.38
2022-09-04T19:23:50.990Z,40.03
2022-09-04T19:26:29.692Z,37.30
2022-09-04T19:29:06.316Z,40.30
2022-09-04T19:31:39.840Z,39.70
2022-09-04T19:34:18.914Z,39.50
2022-09-04T19:37:19.024Z,38.78
2022-09-04T19:46:05.849Z,35.50
2022-09-04T19:46:11.717Z,39.13
2022-09-04T19:46:18.033Z,39.13
2022-09-04T19:50:26.031Z,33.95
2022-09-04T19:53:31.034Z,36.55
2022-09-04T19:55:38.711Z,40.53
2022-09-04T19:58:09.527Z,38.88
2022-09-04T20:00:46.158Z,40.80
2022-09-04T20:03:28.889Z,35.15
2022-09-04T20:06:20.977Z,29.42
2022-09-04T20:09:24.046Z,31.13
2022-09-04T20:11:59.221Z,29.10
2022-09-04T20:14:36.932Z,34.05
2022-09-04T20:17:22.834Z,30.50
2022-09-04T20:19:57.086Z,30.25
2022-09-04T20:22:45.433Z,28.63
2022-09-04T20:25:21.510Z,27.75
2022-09-04T20:27:54.392Z,25.52
2022-09-04T20:30:24.917Z,24.48
2022-09-04T20:33:05.533Z,25.00
2022-09-04T20:35:54.577Z,29.95
2022-09-04T20:38:53.687Z,30.38
2022-09-04T20:41:51.787Z,28.33
2022-09-04T20:45:07.113Z,29.02
2022-09-04T20:52:46.065Z,28.30
2022-09-04T20:53:05.942Z,26.55
2022-09-04T20:53:38.394Z,25.67
2022-09-04T20:56:09.384Z,25.10
2022-09-04T21:03:11.860Z,22.92
2022-09-04T21:03:12.773Z,24.08
2022-09-04T21:05:02.937Z,22.92
2022-09-04T21:07:45.216Z,24.05
2022-09-04T21:10:40.906Z,24.77
2022-09-04T21:13:21.472Z,24.58
2022-09-04T21:15:51.871Z,24.90
2022-09-04T21:18:36.712Z,25.80
2022-09-04T21:21:25.106Z,23.25
2022-09-04T21:24:16.436Z,25.73
2022-09-04T21:27:10.399Z,26.65
2022-09-04T21:30:00.446Z,21.25
2022-09-04T21:32:30.289Z,27.58
2022-09-04T21:34:57.026Z,26.58
2022-09-04T21:38:01.011Z,24.77
2022-09-04T21:40:58.105Z,21.83
2022-09-04T21:43:43.459Z,21.17
2022-09-04T21:46:47.996Z,22.95
2022-09-04T21:49:43.673Z,25.45
2022-09-04T21:52:28.671Z,22.92
2022-09-04T21:57:25.921Z,24.50
2022-09-04T22:02:41.703Z,22.05
2022-09-04T22:02:46.084Z,24.95
2022-09-04T22:04:38.567Z,22.85
2022-09-04T22:12:13.090Z,31.33
2022-09-04T22:13:35.446Z,25.20
2022-09-04T22:13:50.695Z,24.38
2022-09-04T22:16:36.422Z,23.58
2022-09-04T22:19:26.800Z,23.75
2022-09-04T22:22:17.475Z,21.95
2022-09-04T22:24:56.449Z,22.30
2022-09-04T22:28:04.582Z,24.38
2022-09-04T22:30:53.445Z,23.10
2022-09-04T22:34:15.800Z,20.38
2022-09-04T22:37:05.863Z,21.98
2022-09-04T22:40:01.979Z,20.75
2022-09-04T22:42:51.442Z,20.95
2022-09-04T22:45:37.560Z,20.00
2022-09-04T22:48:40.896Z,20.77
2022-09-04T22:51:22.967Z,21.38
2022-09-04T22:54:01.826Z,21.00
2022-09-04T22:56:55.731Z,25.20
2022-09-04T22:59:41.293Z,19.45
2022-09-04T23:03:04.278Z,21.70
2022-09-04T23:05:34.060Z,20.63
2022-09-04T23:13:43.529Z,20.23
2022-09-04T23:14:00.586Z,21.83
2022-09-04T23:14:32.281Z,19.00
2022-09-04T23:17:04.908Z,18.33
2022-09-04T23:25:35.317Z,17.08
2022-09-04T23:26:48.001Z,18.45
2022-09-04T23:26:49.807Z,19.92
2022-09-04T23:28:53.101Z,20.60
2022-09-04T23:31:46.949Z,21.63
2022-09-04T23:37:22.529Z,18.42
2022-09-04T23:40:20.020Z,20.80
2022-09-04T23:43:13.230Z,19.73
2022-09-04T23:46:01.086Z,19.15
2022-09-04T23:48:53.747Z,19.05
2022-09-04T23:51:23.397Z,19.38
2022-09-04T23:54:25.430Z,17.90
2022-09-04T23:57:30.960Z,18.45
